KCMI

University of Illinois-Willard Airport

Champaign/Urbana, Illinois, USA
METAR KCMI 221831Z 17018G26KT 10SM BKN030 OVC035 01/M03 A3004 RMK AO2 PK WND 18026/1826 T00061033
Observed Flight Rules
Jan-22 @ 18:31 UTC (23 minutes ago) Marginal Visual Flight Rules
Wind Visibility Clouds
170° at 18 knots
 Gusting to 26 knots
10 miles
  • Broken at 3,000' AGL
  • Overcast at 3,500' AGL
Temperatures Readings
Current 1°C / 34°F
Dewpoint -3°C / 27°F
Humidity 75%
Altimeter 30.04" Hg
Pressure 1017.32 hPa
Elevation 228
METAR KCMI 221831Z 17018G26KT 10SM BKN030 OVC035 01/M03 A3004 RMK AO2 PK WND 18026/1826 T00061033
Observed Flight Rules
Jan-22 @ 18:31 UTC
(23 minutes ago)
MVFR
Wind Visibility
170° at 18 knots
 Gusting to 26 knots
10 miles
Clouds
  • Broken at 3,000' AGL
  • Overcast at 3,500' AGL
Temperature Dewpoint
1°C / 34°F -3°C / 27°F
Humidity Altimeter Pressure
75% 30.04" Hg 1017.32 hPa